createdAt,value
2022-10-17T00:00:15.628Z,52.75
2022-10-17T00:02:42.241Z,52.60
2022-10-17T00:05:08.687Z,50.10
2022-10-17T00:07:35.094Z,51.20
2022-10-17T00:10:01.384Z,51.03
2022-10-17T00:12:27.784Z,51.13
2022-10-17T00:14:54.198Z,49.53
2022-10-17T00:17:20.594Z,49.95
2022-10-17T00:19:46.914Z,48.35
2022-10-17T00:22:13.332Z,49.72
2022-10-17T00:24:39.602Z,50.17
2022-10-17T00:27:05.942Z,47.05
2022-10-17T00:29:33.296Z,48.67
2022-10-17T00:31:59.788Z,47.15
2022-10-17T00:34:26.142Z,47.80
2022-10-17T00:36:52.448Z,46.97
2022-10-17T00:39:18.778Z,45.95
2022-10-17T00:41:45.247Z,47.05
2022-10-17T00:44:11.697Z,47.35
2022-10-17T00:46:38.111Z,45.95
2022-10-17T00:49:04.479Z,45.30
2022-10-17T00:51:30.833Z,44.95
2022-10-17T00:53:57.253Z,45.63
2022-10-17T00:56:23.562Z,45.10
2022-10-17T00:58:49.911Z,43.33
2022-10-17T01:01:16.516Z,43.60
2022-10-17T01:03:43.038Z,42.63
2022-10-17T01:06:11.624Z,43.47
2022-10-17T01:08:37.893Z,42.45
2022-10-17T01:11:04.184Z,42.50
2022-10-17T01:13:30.593Z,42.45
2022-10-17T01:15:56.959Z,43.28
2022-10-17T01:18:23.797Z,42.92
2022-10-17T01:20:51.026Z,41.58
2022-10-17T01:23:17.623Z,41.25
2022-10-17T01:25:44.231Z,40.85
2022-10-17T01:28:10.532Z,41.10
2022-10-17T01:30:36.896Z,41.90
2022-10-17T01:33:03.419Z,41.20
2022-10-17T01:35:29.908Z,41.97
2022-10-17T01:37:56.309Z,40.75
2022-10-17T01:40:22.665Z,41.47
2022-10-17T01:42:48.956Z,38.85
2022-10-17T01:45:15.716Z,40.47
2022-10-17T01:47:42.735Z,39.33
2022-10-17T01:50:09.102Z,38.58
2022-10-17T01:52:35.347Z,37.47
2022-10-17T01:55:01.639Z,38.08
2022-10-17T01:57:28.234Z,38.00
2022-10-17T01:59:54.658Z,37.45
2022-10-17T02:02:21.076Z,37.20
2022-10-17T02:07:14.144Z,36.65
2022-10-17T02:09:40.490Z,36.83
2022-10-17T02:12:06.831Z,36.05
2022-10-17T02:14:33.498Z,35.53
2022-10-17T02:16:59.886Z,34.92
2022-10-17T02:19:26.314Z,35.20
2022-10-17T02:21:52.648Z,36.65
2022-10-17T02:24:19.223Z,34.28
2022-10-17T02:26:45.510Z,34.50
2022-10-17T02:29:11.919Z,34.20
2022-10-17T02:31:38.318Z,34.40
2022-10-17T02:34:04.755Z,34.10
2022-10-17T02:36:31.087Z,33.00
2022-10-17T02:38:57.602Z,34.92
2022-10-17T02:41:23.969Z,32.92
2022-10-17T02:43:50.448Z,34.67
2022-10-17T02:46:16.924Z,32.88
2022-10-17T02:48:43.298Z,33.05
2022-10-17T02:51:09.562Z,32.78
2022-10-17T02:53:35.914Z,32.15
2022-10-17T02:56:02.409Z,31.20
2022-10-17T02:58:28.854Z,32.42
2022-10-17T03:00:55.331Z,31.77
2022-10-17T03:03:21.753Z,32.60
2022-10-17T03:05:48.080Z,31.88
2022-10-17T03:08:14.518Z,30.90
2022-10-17T03:10:40.842Z,30.23
2022-10-17T03:13:07.357Z,30.52
2022-10-17T03:15:33.761Z,31.42
2022-10-17T03:18:00.118Z,29.60
2022-10-17T03:20:26.791Z,30.55
2022-10-17T03:25:19.786Z,28.90
2022-10-17T03:27:46.127Z,28.85
2022-10-17T03:30:12.527Z,28.17
2022-10-17T03:32:39.308Z,28.27
2022-10-17T03:35:05.819Z,26.95
2022-10-17T03:37:32.281Z,28.17
2022-10-17T03:39:59.147Z,28.30
2022-10-17T03:42:25.484Z,29.20
2022-10-17T03:44:51.806Z,27.67
2022-10-17T03:47:18.219Z,26.88
2022-10-17T03:49:44.542Z,27.60
2022-10-17T03:52:11.028Z,27.25
2022-10-17T03:54:37.341Z,27.77
2022-10-17T03:57:04.499Z,25.98
2022-10-17T03:59:30.846Z,26.55
2022-10-17T04:01:57.167Z,26.08
2022-10-17T04:04:23.462Z,25.65
2022-10-17T04:06:49.793Z,26.38
2022-10-17T04:09:16.147Z,24.73
2022-10-17T04:11:42.564Z,25.75
2022-10-17T04:14:09.091Z,25.48
2022-10-17T04:16:35.503Z,26.08
2022-10-17T04:19:01.861Z,26.35
2022-10-17T04:21:29.874Z,23.92
2022-10-17T04:23:56.714Z,24.63
2022-10-17T04:26:23.190Z,23.60
2022-10-17T04:28:49.613Z,23.45
2022-10-17T04:31:15.926Z,23.55
2022-10-17T04:33:43.931Z,24.17
2022-10-17T04:36:10.246Z,23.88
2022-10-17T04:38:37.098Z,23.25
2022-10-17T04:41:03.548Z,22.48
2022-10-17T04:43:30.000Z,23.23
2022-10-17T04:45:56.460Z,23.13
2022-10-17T04:48:22.852Z,22.45
2022-10-17T04:50:49.352Z,23.50
2022-10-17T04:53:15.688Z,21.92
2022-10-17T04:55:41.963Z,22.90
2022-10-17T04:58:08.318Z,23.33
2022-10-17T05:00:34.856Z,21.55
2022-10-17T05:03:02.308Z,22.60
2022-10-17T05:05:28.650Z,21.92
2022-10-17T05:07:55.133Z,21.90
2022-10-17T05:10:21.445Z,21.77
2022-10-17T05:12:47.714Z,22.65
2022-10-17T05:15:14.276Z,21.35
2022-10-17T05:17:40.614Z,21.38
2022-10-17T05:20:06.953Z,20.33
2022-10-17T05:22:36.039Z,20.08
2022-10-17T05:25:03.548Z,21.63
2022-10-17T05:27:29.826Z,20.55
2022-10-17T05:29:56.062Z,21.80
2022-10-17T05:32:22.350Z,20.27
2022-10-17T05:34:48.779Z,20.42
2022-10-17T05:37:15.129Z,20.88
2022-10-17T05:39:41.534Z,19.90
2022-10-17T05:42:07.923Z,21.23
2022-10-17T05:44:34.235Z,20.17
2022-10-17T05:47:00.574Z,20.20
2022-10-17T05:49:33.289Z,17.52
2022-10-17T05:52:10.228Z,18.13
2022-10-17T05:54:36.644Z,18.60
2022-10-17T05:57:03.190Z,18.98
2022-10-17T05:59:29.713Z,18.67
2022-10-17T06:01:56.676Z,18.67
2022-10-17T06:04:23.121Z,18.70
2022-10-17T06:06:49.489Z,18.75
2022-10-17T06:09:15.823Z,17.63
2022-10-17T06:11:42.092Z,18.00
2022-10-17T06:14:08.521Z,17.25
2022-10-17T06:16:35.226Z,17.35
2022-10-17T06:19:01.744Z,18.30
2022-10-17T06:21:28.108Z,17.30
2022-10-17T06:23:54.486Z,18.50
2022-10-17T06:26:20.901Z,18.52
2022-10-17T06:28:47.587Z,18.27
2022-10-17T06:31:14.037Z,17.77
2022-10-17T06:33:40.788Z,17.65
2022-10-17T06:36:07.211Z,17.27
2022-10-17T06:38:34.934Z,17.05
2022-10-17T06:41:01.580Z,16.85
2022-10-17T06:43:32.306Z,17.90
2022-10-17T06:46:00.589Z,19.65
2022-10-17T06:48:26.957Z,17.65
2022-10-17T06:50:55.469Z,18.20
2022-10-17T06:53:23.084Z,18.42
2022-10-17T06:55:50.069Z,18.88
2022-10-17T06:58:16.432Z,18.30
2022-10-17T07:00:42.893Z,18.20
2022-10-17T07:03:09.471Z,18.92
2022-10-17T07:05:35.783Z,18.63
2022-10-17T07:08:02.405Z,20.73
2022-10-17T07:10:28.791Z,20.25
2022-10-17T07:12:55.243Z,20.10
2022-10-17T07:15:21.497Z,19.90
2022-10-17T07:17:47.872Z,17.83
2022-10-17T07:20:14.187Z,19.10
2022-10-17T07:22:40.574Z,19.88
2022-10-17T07:25:07.042Z,18.33
2022-10-17T07:27:33.357Z,20.48
2022-10-17T07:29:59.944Z,18.92
2022-10-17T07:32:26.639Z,19.88
2022-10-17T07:34:53.037Z,19.60
2022-10-17T07:37:19.444Z,19.52
2022-10-17T07:39:45.817Z,18.85
2022-10-17T07:42:12.204Z,19.58
2022-10-17T07:44:38.702Z,20.15
2022-10-17T07:47:05.270Z,19.92
2022-10-17T07:49:31.777Z,20.33
2022-10-17T07:51:58.239Z,19.42
2022-10-17T07:54:24.728Z,18.90
2022-10-17T07:56:51.113Z,20.40
2022-10-17T07:59:17.537Z,19.95
2022-10-17T08:01:43.889Z,18.98
2022-10-17T08:04:10.851Z,20.45
2022-10-17T08:06:37.215Z,20.80
2022-10-17T08:09:03.636Z,18.73
2022-10-17T08:11:29.973Z,19.35
2022-10-17T08:13:56.492Z,19.67
2022-10-17T08:16:22.868Z,21.13
2022-10-17T08:18:49.256Z,20.52
2022-10-17T08:21:15.612Z,20.52
2022-10-17T08:23:42.158Z,21.52
2022-10-17T08:26:08.528Z,20.17
2022-10-17T08:28:34.862Z,20.02
2022-10-17T08:31:01.305Z,21.83
2022-10-17T08:33:29.816Z,22.00
2022-10-17T08:35:56.271Z,22.77
2022-10-17T08:38:26.198Z,24.08
2022-10-17T08:40:53.953Z,25.75
2022-10-17T08:43:20.351Z,25.90
2022-10-17T08:45:46.725Z,24.55
2022-10-17T08:48:13.067Z,24.45
2022-10-17T08:50:42.642Z,23.83
2022-10-17T08:53:09.127Z,24.65
2022-10-17T08:55:36.958Z,25.10
2022-10-17T08:58:05.298Z,24.92
2022-10-17T09:00:31.593Z,24.67
2022-10-17T09:02:57.991Z,25.88
2022-10-17T09:05:26.521Z,24.38
2022-10-17T09:07:53.293Z,24.75
2022-10-17T09:10:19.932Z,23.27
2022-10-17T09:12:47.610Z,23.35
2022-10-17T09:15:13.969Z,24.15
2022-10-17T09:17:40.616Z,25.17
2022-10-17T09:20:07.015Z,24.15
2022-10-17T09:22:33.453Z,24.15
2022-10-17T09:25:01.094Z,24.00
2022-10-17T09:27:28.004Z,24.67
2022-10-17T09:29:54.558Z,23.98
2022-10-17T09:32:21.141Z,24.80
2022-10-17T09:34:47.978Z,23.83
2022-10-17T09:37:14.524Z,24.42
2022-10-17T09:39:40.947Z,23.77
2022-10-17T09:42:07.288Z,24.77
2022-10-17T09:44:33.703Z,23.25
2022-10-17T09:47:00.167Z,22.58
2022-10-17T09:49:26.668Z,23.23
2022-10-17T09:51:53.013Z,23.35
2022-10-17T09:54:19.434Z,23.63
2022-10-17T09:56:45.774Z,23.33
2022-10-17T10:01:57.662Z,21.30
2022-10-17T10:04:30.298Z,23.13
2022-10-17T10:06:57.040Z,23.50
2022-10-17T10:09:23.430Z,23.75
2022-10-17T10:11:50.101Z,23.00
2022-10-17T10:14:16.530Z,21.70
2022-10-17T10:16:42.903Z,21.48
2022-10-17T10:19:09.787Z,21.15
2022-10-17T10:21:37.405Z,21.42
2022-10-17T10:24:03.786Z,21.42
2022-10-17T10:26:30.203Z,22.88
2022-10-17T10:28:56.615Z,20.80
2022-10-17T10:31:23.153Z,22.77
2022-10-17T10:33:51.477Z,21.58
2022-10-17T10:36:19.626Z,21.20
2022-10-17T10:38:46.017Z,21.15
2022-10-17T10:41:12.649Z,21.05
2022-10-17T10:43:39.127Z,20.42
2022-10-17T10:46:05.553Z,20.77
2022-10-17T10:48:31.915Z,20.30
2022-10-17T10:50:58.318Z,20.73
2022-10-17T10:53:24.811Z,21.10
2022-10-17T10:55:51.271Z,19.55
2022-10-17T10:58:17.635Z,20.25
2022-10-17T11:00:44.138Z,19.63
2022-10-17T11:03:12.607Z,20.67
2022-10-17T11:05:39.349Z,20.60
2022-10-17T11:08:05.997Z,19.73
2022-10-17T11:10:32.345Z,19.17
2022-10-17T11:12:58.720Z,19.40
2022-10-17T11:15:25.062Z,19.50
2022-10-17T11:17:51.477Z,18.45
2022-10-17T11:20:18.035Z,18.80
2022-10-17T11:22:44.453Z,18.90
2022-10-17T11:25:10.846Z,19.33
2022-10-17T11:27:37.210Z,18.95
2022-10-17T11:30:03.619Z,18.17
2022-10-17T11:32:30.066Z,20.42
2022-10-17T11:34:56.714Z,18.27
2022-10-17T11:37:23.159Z,18.13
2022-10-17T11:39:49.558Z,18.52
2022-10-17T11:42:16.131Z,18.27
2022-10-17T11:44:42.461Z,18.63
2022-10-17T11:47:08.845Z,18.35
2022-10-17T11:49:38.229Z,18.77
2022-10-17T11:52:08.511Z,18.63
2022-10-17T11:54:34.898Z,18.05
2022-10-17T11:57:01.247Z,18.83
2022-10-17T11:59:27.926Z,17.83
2022-10-17T12:01:54.510Z,17.55
2022-10-17T12:04:21.162Z,18.55
2022-10-17T12:06:47.830Z,17.92
2022-10-17T12:09:14.352Z,17.70
2022-10-17T12:11:40.780Z,17.25
2022-10-17T12:14:07.599Z,18.40
2022-10-17T12:16:34.197Z,16.50
2022-10-17T12:19:00.596Z,16.75
2022-10-17T12:21:31.268Z,17.20
2022-10-17T12:23:58.546Z,18.00
2022-10-17T12:26:24.989Z,16.50
2022-10-17T12:28:51.533Z,16.25
2022-10-17T12:31:18.000Z,17.27
2022-10-17T12:33:44.515Z,16.27
2022-10-17T12:36:11.088Z,16.80
2022-10-17T12:38:37.449Z,16.60
2022-10-17T12:41:03.792Z,16.23
2022-10-17T12:43:30.229Z,16.55
2022-10-17T12:45:56.592Z,16.73
2022-10-17T12:48:22.918Z,16.67
2022-10-17T12:50:49.346Z,15.85
2022-10-17T12:53:18.478Z,16.75
2022-10-17T12:55:46.006Z,17.15
2022-10-17T12:58:12.449Z,16.17
2022-10-17T13:00:39.028Z,16.55
2022-10-17T13:03:05.425Z,16.42
2022-10-17T13:05:31.957Z,16.17
2022-10-17T13:07:58.367Z,15.65
2022-10-17T13:10:24.801Z,15.88
2022-10-17T13:12:51.293Z,16.40
2022-10-17T13:15:17.938Z,16.08
2022-10-17T13:17:44.325Z,15.48
2022-10-17T13:20:10.715Z,15.20
2022-10-17T13:22:37.102Z,15.55
2022-10-17T13:25:03.714Z,15.63
2022-10-17T13:27:30.069Z,15.20
2022-10-17T13:29:56.465Z,15.15
2022-10-17T13:32:22.851Z,14.73
2022-10-17T13:34:49.213Z,15.65
2022-10-17T13:37:15.791Z,15.63
2022-10-17T13:39:55.122Z,15.20
2022-10-17T13:42:22.319Z,14.73
2022-10-17T13:44:48.735Z,15.65
2022-10-17T13:47:15.229Z,16.05
2022-10-17T13:49:41.646Z,14.80
2022-10-17T13:52:08.039Z,14.65
2022-10-17T13:54:34.499Z,15.30
2022-10-17T13:57:01.149Z,14.57
2022-10-17T13:59:27.576Z,15.68
2022-10-17T14:01:54.010Z,15.52
2022-10-17T14:04:20.761Z,15.45
2022-10-17T14:06:49.470Z,15.27
2022-10-17T14:11:44.407Z,15.00
2022-10-17T14:14:11.048Z,15.05
2022-10-17T14:16:37.486Z,14.68
2022-10-17T14:19:03.920Z,14.90
2022-10-17T14:21:44.221Z,15.20
2022-10-17T14:24:11.168Z,14.50
2022-10-17T14:26:37.628Z,15.27
2022-10-17T14:29:04.066Z,14.18
2022-10-17T14:31:30.518Z,14.05
2022-10-17T14:33:56.935Z,14.00
2022-10-17T14:36:23.323Z,13.85
2022-10-17T14:38:51.502Z,13.60
2022-10-17T14:41:44.799Z,14.77
2022-10-17T14:44:04.218Z,14.10
2022-10-17T14:46:30.668Z,13.77
2022-10-17T14:48:57.072Z,13.35
2022-10-17T14:51:23.556Z,13.82
2022-10-17T14:53:50.025Z,13.20
2022-10-17T14:56:16.491Z,14.57
2022-10-17T14:58:42.844Z,13.60
2022-10-17T15:01:09.328Z,13.35
2022-10-17T15:03:35.904Z,13.55
2022-10-17T15:06:02.664Z,14.18
2022-10-17T15:08:29.509Z,13.57
2022-10-17T15:10:55.927Z,14.13
2022-10-17T15:13:32.129Z,14.00
2022-10-17T15:16:01.407Z,13.38
2022-10-17T15:18:27.950Z,13.50
2022-10-17T15:21:04.588Z,13.23
2022-10-17T15:23:33.137Z,13.73
2022-10-17T15:25:59.796Z,13.20
2022-10-17T15:28:26.209Z,12.98
2022-10-17T15:30:52.523Z,13.68
2022-10-17T15:33:18.958Z,13.40
2022-10-17T15:35:45.338Z,14.02
2022-10-17T15:38:11.718Z,13.20
2022-10-17T15:40:38.120Z,13.63
2022-10-17T15:43:04.882Z,12.98
2022-10-17T15:45:31.316Z,14.15
2022-10-17T15:47:58.063Z,13.52
2022-10-17T15:50:24.462Z,13.27
2022-10-17T15:52:51.000Z,13.35
2022-10-17T15:55:17.683Z,13.38
2022-10-17T15:57:44.493Z,13.50
2022-10-17T16:00:15.460Z,13.30
2022-10-17T16:02:42.876Z,13.65
2022-10-17T16:05:09.525Z,13.43
2022-10-17T16:07:35.924Z,13.88
2022-10-17T16:10:02.306Z,12.85
2022-10-17T16:12:28.717Z,12.70
2022-10-17T16:14:55.156Z,14.02
2022-10-17T16:17:21.935Z,12.70
2022-10-17T16:19:48.756Z,13.15
2022-10-17T16:22:15.124Z,12.93
2022-10-17T16:24:41.596Z,12.77
2022-10-17T16:27:07.944Z,12.38
2022-10-17T16:29:34.326Z,13.15
2022-10-17T16:32:00.779Z,12.52
2022-10-17T16:34:27.903Z,12.27
2022-10-17T16:36:54.376Z,13.02
2022-10-17T16:39:20.771Z,13.23
2022-10-17T16:41:47.265Z,12.27
2022-10-17T16:44:13.724Z,12.35
2022-10-17T16:46:40.103Z,12.68
2022-10-17T16:49:06.430Z,12.85
2022-10-17T16:51:32.840Z,12.05
2022-10-17T16:53:59.222Z,13.02
2022-10-17T16:56:25.769Z,13.07
2022-10-17T16:58:52.242Z,12.48
2022-10-17T17:01:19.775Z,12.02
2022-10-17T17:03:46.162Z,12.77
2022-10-17T17:06:12.507Z,12.60
2022-10-17T17:08:39.006Z,12.90
2022-10-17T17:11:05.468Z,12.07
2022-10-17T17:13:31.760Z,12.40
2022-10-17T17:15:58.179Z,12.48
2022-10-17T17:18:24.555Z,12.52
2022-10-17T17:20:52.972Z,11.50
2022-10-17T17:23:19.990Z,11.82
2022-10-17T17:25:46.367Z,12.93
2022-10-17T17:28:12.973Z,12.27
2022-10-17T17:30:39.364Z,12.27
2022-10-17T17:33:05.720Z,12.35
2022-10-17T17:35:32.365Z,11.80
2022-10-17T17:37:58.732Z,11.13
2022-10-17T17:40:25.078Z,12.00
2022-10-17T17:42:51.694Z,11.63
2022-10-17T17:45:18.127Z,12.68
2022-10-17T17:47:44.483Z,11.75
2022-10-17T17:50:10.884Z,11.60
2022-10-17T17:52:37.233Z,11.65
2022-10-17T17:55:03.560Z,12.00
2022-10-17T17:57:29.951Z,12.23
2022-10-17T17:59:56.305Z,12.27
2022-10-17T18:02:22.684Z,11.73
2022-10-17T18:04:49.166Z,11.88
2022-10-17T18:07:15.804Z,13.27
2022-10-17T18:09:42.149Z,11.98
2022-10-17T18:12:08.578Z,12.45
2022-10-17T18:14:35.057Z,12.27
2022-10-17T18:17:01.459Z,12.38
2022-10-17T18:19:28.544Z,12.60
2022-10-17T18:21:55.202Z,12.52
2022-10-17T18:24:21.587Z,12.25
2022-10-17T18:26:48.135Z,12.40
2022-10-17T18:29:14.555Z,11.90
2022-10-17T18:31:40.968Z,11.95
2022-10-17T18:34:07.392Z,13.27
2022-10-17T18:36:33.780Z,12.20
2022-10-17T18:39:00.513Z,13.18
2022-10-17T18:41:27.100Z,12.43
2022-10-17T18:43:53.719Z,12.88
2022-10-17T18:46:20.087Z,12.50
2022-10-17T18:48:46.484Z,12.40
2022-10-17T18:51:12.821Z,12.48
2022-10-17T18:53:39.283Z,11.88
2022-10-17T18:56:05.899Z,12.35
2022-10-17T18:58:32.250Z,12.18
2022-10-17T19:00:58.653Z,12.88
2022-10-17T19:03:25.002Z,12.13
2022-10-17T19:05:51.375Z,11.77
2022-10-17T19:08:17.743Z,12.73
2022-10-17T19:10:44.066Z,13.02
2022-10-17T19:13:10.421Z,12.57
2022-10-17T19:15:36.796Z,12.25
2022-10-17T19:18:03.303Z,12.40
2022-10-17T19:20:29.664Z,13.05
2022-10-17T19:22:56.009Z,12.35
2022-10-17T19:25:22.378Z,12.73
2022-10-17T19:27:48.859Z,12.88
2022-10-17T19:30:15.288Z,12.63
2022-10-17T19:32:42.150Z,13.95
2022-10-17T19:35:08.535Z,13.48
2022-10-17T19:37:34.971Z,12.73
2022-10-17T19:40:01.437Z,13.25
2022-10-17T19:42:28.407Z,13.32
2022-10-17T19:44:55.312Z,13.60
2022-10-17T19:47:21.649Z,13.63
2022-10-17T19:49:50.145Z,14.10
2022-10-17T19:52:16.694Z,13.50
2022-10-17T19:54:43.165Z,14.52
2022-10-17T19:57:10.609Z,13.93
2022-10-17T19:59:37.189Z,12.77
2022-10-17T20:02:03.680Z,14.27
2022-10-17T20:04:31.566Z,12.90
2022-10-17T20:06:58.099Z,12.82
2022-10-17T20:09:24.531Z,13.30
2022-10-17T20:11:50.899Z,13.15
2022-10-17T20:14:17.328Z,12.95
2022-10-17T20:16:43.765Z,12.95
2022-10-17T20:19:10.299Z,13.10
2022-10-17T20:21:36.627Z,14.00
2022-10-17T20:24:03.386Z,13.23
2022-10-17T20:26:38.564Z,14.13
2022-10-17T20:29:06.513Z,13.45
2022-10-17T20:31:32.911Z,14.07
2022-10-17T20:33:59.315Z,13.02
2022-10-17T20:36:25.640Z,13.80
2022-10-17T20:38:52.000Z,12.45
2022-10-17T20:41:18.372Z,13.68
2022-10-17T20:43:44.852Z,13.45
2022-10-17T20:46:23.535Z,14.88
2022-10-17T20:48:56.056Z,13.10
2022-10-17T20:51:22.408Z,12.82
2022-10-17T20:53:48.844Z,14.02
2022-10-17T20:56:15.287Z,14.13
2022-10-17T20:58:41.699Z,13.57
2022-10-17T21:01:08.105Z,13.38
2022-10-17T21:03:34.444Z,14.10
2022-10-17T21:06:00.956Z,14.52
2022-10-17T21:08:27.504Z,14.00
2022-10-17T21:10:53.869Z,14.30
2022-10-17T21:13:20.222Z,13.73
2022-10-17T21:15:46.659Z,13.32
2022-10-17T21:18:12.967Z,14.52
2022-10-17T21:20:39.313Z,13.93
2022-10-17T21:23:05.658Z,14.25
2022-10-17T21:25:32.139Z,13.48
2022-10-17T21:27:58.631Z,14.02
2022-10-17T21:30:25.119Z,14.30
2022-10-17T21:32:52.118Z,13.60
2022-10-17T21:35:18.690Z,13.85
2022-10-17T21:37:45.076Z,13.93
2022-10-17T21:40:11.447Z,13.43
2022-10-17T21:42:37.947Z,13.75
2022-10-17T21:45:10.603Z,13.45
2022-10-17T21:47:54.966Z,13.18
2022-10-17T21:50:30.572Z,13.50
2022-10-17T21:52:57.165Z,13.48
2022-10-17T21:55:23.528Z,13.65
2022-10-17T21:57:49.857Z,14.73
2022-10-17T22:00:16.355Z,14.45
2022-10-17T22:02:42.739Z,13.98
2022-10-17T22:05:10.592Z,14.90
2022-10-17T22:07:37.138Z,14.35
2022-10-17T22:10:03.582Z,14.98
2022-10-17T22:12:30.381Z,15.32
2022-10-17T22:14:56.943Z,15.43
2022-10-17T22:17:23.494Z,14.48
2022-10-17T22:19:49.833Z,13.57
2022-10-17T22:22:16.278Z,14.50
2022-10-17T22:24:42.902Z,14.70
2022-10-17T22:27:09.265Z,14.90
2022-10-17T22:29:35.757Z,15.52
2022-10-17T22:32:02.254Z,15.18
2022-10-17T22:34:28.615Z,14.98
2022-10-17T22:36:55.001Z,14.43
2022-10-17T22:39:21.492Z,15.63
2022-10-17T22:41:47.853Z,16.20
2022-10-17T22:44:14.277Z,16.73
2022-10-17T22:46:40.664Z,14.90
2022-10-17T22:49:07.269Z,15.43
2022-10-17T22:51:33.757Z,15.68
2022-10-17T22:54:00.144Z,16.40
2022-10-17T22:56:26.607Z,14.35
2022-10-17T22:58:52.975Z,16.25
2022-10-17T23:01:19.440Z,15.85
2022-10-17T23:03:45.931Z,14.93
2022-10-17T23:06:12.297Z,16.05
2022-10-17T23:08:38.663Z,16.00
2022-10-17T23:11:05.020Z,15.10
2022-10-17T23:13:31.388Z,15.85
2022-10-17T23:15:58.176Z,16.17
2022-10-17T23:18:24.587Z,16.55
2022-10-17T23:20:51.058Z,16.20
2022-10-17T23:23:17.427Z,16.98
2022-10-17T23:25:43.992Z,16.65
2022-10-17T23:28:10.318Z,16.13
2022-10-17T23:30:37.912Z,16.45
2022-10-17T23:33:04.360Z,17.13
2022-10-17T23:35:30.715Z,16.83
2022-10-17T23:37:57.183Z,16.35
2022-10-17T23:40:23.691Z,16.52
2022-10-17T23:42:49.971Z,16.30
2022-10-17T23:45:16.436Z,17.13
2022-10-17T23:47:43.004Z,16.55
2022-10-17T23:50:09.381Z,16.25
2022-10-17T23:52:35.820Z,17.58
2022-10-17T23:55:02.147Z,17.23
2022-10-17T23:57:28.891Z,18.35
2022-10-17T23:59:55.649Z,15.48
